Albertson, New York
Current Conditions -  °F | °C
As of 5:51 PM on Sunday 21 Dec 2014 (Local Time) from KJFK Reporting Station
Light Snow Light Snow  
Wind Chill: 29°   Ceiling: 3200
Heat Index: 36°   Visibility: 10mi
Dew Point: 28°   Wind: 9mph
Humidity: 73%   Direction: 350°N
Pressure: 30.32"   Gusts: NA
Location:  40.77°N, 73.65°W
Report Text: KJFK 212251Z 35008KT 10SM -SN FEW018 SCT025 OVC032 02/M02 A3032 RMK AO2 SNB47 SLP265 P0000 T00221022 $
Loading
Personal Weather Stations






























Interactive Weather Map New forecast layout! Learn more

10-Day Weather Forecast

Advertisements
Track Severe Weather on mobile